Time;durP1;ratioP1;P1;durP2;ratioP2;P2;SDS_P1;SDS_P2;PMS_P1;PMS_P2;Temp;Humidity;BMP_temperature;BMP_pressure;BME280_temperature;BME280_humidity;BME280_pressure;Samples;Min_cycle;Max_cycle;Signal;HPM_P1;HPM_P2
2023/04/30 00:02:10;;;;;;;9.00;5.05;;;;;;;-145.50;100.00;65435.88;5024476;28;20057;-71
2023/04/30 00:04:36;;;;;;;11.20;5.57;;;;;;;-145.50;100.00;65435.88;5044138;28;20053;-73
2023/04/30 00:07:03;;;;;;;10.15;5.88;;;;;;;-145.50;100.00;65435.88;5047372;28;20048;-71
2023/04/30 00:09:29;;;;;;;10.15;5.22;;;;;;;-145.50;100.00;65435.88;5031932;28;20108;-71
2023/04/30 00:11:56;;;;;;;9.55;5.68;;;;;;;-145.50;100.00;65435.88;5045277;28;20049;-71
2023/04/30 00:14:22;;;;;;;10.35;5.32;;;;;;;-145.50;100.00;65435.88;5044350;28;20052;-71
2023/04/30 00:16:49;;;;;;;8.73;6.05;;;;;;;-145.50;100.00;65435.88;5025499;28;20076;-72
2023/04/30 00:19:16;;;;;;;11.75;5.78;;;;;;;-145.50;100.00;65435.88;5051452;28;20056;-72
2023/04/30 00:21:42;;;;;;;11.68;6.10;;;;;;;-145.50;100.00;65435.88;5049631;28;20049;-73
2023/04/30 00:24:09;;;;;;;8.05;5.05;;;;;;;-145.50;100.00;65435.88;5049571;28;20049;-72
2023/04/30 00:26:35;;;;;;;11.65;5.47;;;;;;;-145.50;100.00;65435.88;5049164;28;20103;-72
2023/04/30 00:29:01;;;;;;;8.15;5.07;;;;;;;-145.50;100.00;65435.88;5039632;28;20060;-72
2023/04/30 00:31:28;;;;;;;7.38;4.90;;;;;;;-145.50;100.00;65435.88;5038277;28;20087;-73
2023/04/30 00:33:55;;;;;;;11.32;5.93;;;;;;;-145.50;100.00;65435.88;5064946;28;20063;-73
2023/04/30 00:36:22;;;;;;;9.07;5.20;;;;;;;-145.50;100.00;65435.88;5045431;28;20087;-73
2023/04/30 00:38:48;;;;;;;9.18;5.40;;;;;;;-145.50;100.00;65435.88;5062599;28;20116;-71
2023/04/30 00:41:15;;;;;;;10.07;5.60;;;;;;;-145.50;100.00;65435.88;5025849;28;20080;-71
2023/04/30 00:43:42;;;;;;;13.68;5.70;;;;;;;-145.50;100.00;65435.88;5046066;28;20087;-73
2023/04/30 00:46:08;;;;;;;9.52;5.22;;;;;;;-145.50;100.00;65435.88;5045934;28;20065;-71
2023/04/30 00:48:35;;;;;;;7.50;5.15;;;;;;;-145.50;100.00;65435.88;5033204;28;20122;-72
2023/04/30 00:51:03;;;;;;;11.48;6.68;;;;;;;-145.50;100.00;65435.88;5027321;28;20549;-71
2023/04/30 00:53:30;;;;;;;10.05;6.25;;;;;;;-145.50;100.00;65435.88;5032940;28;20055;-73
2023/04/30 00:55:57;;;;;;;12.15;5.88;;;;;;;-145.50;100.00;65435.88;5043863;28;20067;-73
2023/04/30 00:58:24;;;;;;;11.82;6.65;;;;;;;-145.50;100.00;65435.88;5039911;28;20072;-72
2023/04/30 01:00:51;;;;;;;9.90;5.85;;;;;;;-145.50;100.00;65435.88;5048187;28;20391;-72
2023/04/30 01:03:19;;;;;;;9.13;6.32;;;;;;;-145.50;100.00;65435.88;5042757;28;20053;-71
2023/04/30 01:05:45;;;;;;;10.13;6.25;;;;;;;-145.50;100.00;65435.88;5046502;28;20076;-71
2023/04/30 01:08:12;;;;;;;11.68;7.75;;;;;;;-145.50;100.00;65435.88;5038954;28;20061;-72
2023/04/30 01:11:00;;;;;;;11.00;6.28;;;;;;;-145.50;100.00;65435.88;5043168;28;20179;-71
2023/04/30 01:13:58;;;;;;;11.75;7.35;;;;;;;-145.50;100.00;65435.88;5042186;28;20059;-73
2023/04/30 01:16:28;;;;;;;10.48;6.85;;;;;;;-145.50;100.00;65435.88;5048130;28;20060;-71
2023/04/30 01:19:03;;;;;;;12.32;6.55;;;;;;;-145.50;100.00;65435.88;5025588;28;20048;-72
2023/04/30 01:21:32;;;;;;;11.55;7.15;;;;;;;-145.50;100.00;65435.88;5044605;28;20073;-72
2023/04/30 01:24:33;;;;;;;11.63;6.78;;;;;;;-145.50;100.00;65435.88;5043611;28;20751;-73
2023/04/30 01:27:22;;;;;;;9.20;6.18;;;;;;;-145.50;100.00;65435.88;5041777;28;20041;-72
2023/04/30 01:29:49;;;;;;;9.23;5.80;;;;;;;-145.50;100.00;65435.88;5050953;28;20055;-72
2023/04/30 01:32:16;;;;;;;10.52;6.68;;;;;;;-145.50;100.00;65435.88;5043276;28;20049;-71
2023/04/30 01:34:43;;;;;;;10.73;6.53;;;;;;;-145.50;100.00;65435.88;5034290;28;20052;-72
2023/04/30 01:37:30;;;;;;;10.07;6.03;;;;;;;-145.50;100.00;65435.88;5038809;28;20049;-72
2023/04/30 01:40:32;;;;;;;8.68;6.30;;;;;;;-145.50;100.00;65435.88;5039799;28;20137;-72
2023/04/30 01:43:18;;;;;;;12.57;6.55;;;;;;;-145.50;100.00;65435.88;5045273;28;20379;-71
2023/04/30 01:46:16;;;;;;;9.75;6.80;;;;;;;-145.50;100.00;65435.88;5051591;28;20076;-71
2023/04/30 01:48:51;;;;;;;12.70;6.93;;;;;;;-145.50;100.00;65435.88;5045692;28;20461;-72
2023/04/30 01:51:28;;;;;;;10.20;6.90;;;;;;;-145.50;100.00;65435.88;5047274;28;20144;-73
2023/04/30 01:54:00;;;;;;;10.77;6.85;;;;;;;-145.50;100.00;65435.88;5042720;28;20052;-72
2023/04/30 01:56:34;;;;;;;9.68;6.50;;;;;;;-145.50;100.00;65435.88;5051537;28;20111;-72
2023/04/30 01:59:03;;;;;;;8.52;6.35;;;;;;;-145.50;100.00;65435.88;5047081;28;20356;-73
2023/04/30 02:01:31;;;;;;;9.52;6.55;;;;;;;-145.50;100.00;65435.88;5033759;28;20491;-72
2023/04/30 02:03:58;;;;;;;11.45;5.97;;;;;;;-145.50;100.00;65435.88;5054071;28;20048;-73
2023/04/30 02:06:29;;;;;;;9.65;6.07;;;;;;;-145.50;100.00;65435.88;5018514;28;20061;-72
2023/04/30 02:09:01;;;;;;;10.07;5.90;;;;;;;-145.50;100.00;65435.88;5048983;28;20445;-73
2023/04/30 02:11:28;;;;;;;8.48;6.05;;;;;;;-145.50;100.00;65435.88;5042983;28;20052;-72
2023/04/30 02:13:55;;;;;;;9.38;6.45;;;;;;;-145.50;100.00;65435.88;5051978;28;20474;-72
2023/04/30 02:16:22;;;;;;;9.88;6.20;;;;;;;-145.50;100.00;65435.88;5046096;28;20794;-72
2023/04/30 02:18:48;;;;;;;10.45;5.95;;;;;;;-145.50;100.00;65435.88;5047692;28;20450;-72
2023/04/30 02:21:15;;;;;;;9.02;6.03;;;;;;;-145.50;100.00;65435.88;5047307;28;20235;-73
2023/04/30 02:23:41;;;;;;;10.00;5.78;;;;;;;-145.50;100.00;65435.88;5026817;28;20052;-73
2023/04/30 02:26:08;;;;;;;9.18;6.45;;;;;;;-145.50;100.00;65435.88;5035236;28;20506;-72
2023/04/30 02:28:34;;;;;;;10.23;6.03;;;;;;;-145.50;100.00;65435.88;5028684;28;20049;-71
2023/04/30 02:31:01;;;;;;;9.82;6.45;;;;;;;-145.50;100.00;65435.88;5033708;28;20569;-72
2023/04/30 02:33:27;;;;;;;13.68;5.63;;;;;;;-145.50;100.00;65435.88;5024647;28;20168;-72
2023/04/30 02:35:54;;;;;;;9.75;5.93;;;;;;;-145.50;100.00;65435.88;5047691;28;20122;-75
2023/04/30 02:38:20;;;;;;;11.40;5.65;;;;;;;-145.50;100.00;65435.88;5034646;28;20049;-76
2023/04/30 02:40:47;;;;;;;9.27;5.68;;;;;;;-145.50;100.00;65435.88;5049309;28;20061;-75
2023/04/30 02:43:13;;;;;;;9.27;5.75;;;;;;;-145.50;100.00;65435.88;5056336;28;20067;-75
2023/04/30 02:45:40;;;;;;;10.77;5.85;;;;;;;-145.50;100.00;65435.88;5055057;28;20044;-74
2023/04/30 02:48:06;;;;;;;10.48;6.10;;;;;;;-145.50;100.00;65435.88;5057568;28;20044;-72
2023/04/30 02:50:33;;;;;;;9.45;5.82;;;;;;;-145.50;100.00;65435.88;5026004;28;20092;-72
2023/04/30 02:53:00;;;;;;;11.00;6.15;;;;;;;-145.50;100.00;65435.88;5051412;28;20045;-73
2023/04/30 02:55:26;;;;;;;11.95;5.97;;;;;;;-145.50;100.00;65435.88;5036943;28;20450;-72
2023/04/30 02:57:53;;;;;;;9.45;6.07;;;;;;;-145.50;100.00;65435.88;5045715;28;20060;-72
2023/04/30 03:00:19;;;;;;;9.07;6.13;;;;;;;-145.50;100.00;65435.88;5049622;28;20052;-72
2023/04/30 03:02:46;;;;;;;8.90;5.82;;;;;;;-145.50;100.00;65435.88;5018862;28;20057;-74
2023/04/30 03:05:14;;;;;;;9.38;5.63;;;;;;;-145.50;100.00;65435.88;5032126;28;20413;-72
2023/04/30 03:07:41;;;;;;;12.35;6.80;;;;;;;-145.50;100.00;65435.88;5028173;28;20103;-72
2023/04/30 03:10:08;;;;;;;8.73;4.82;;;;;;;-145.50;100.00;65435.88;5050091;28;20077;-72
2023/04/30 03:12:34;;;;;;;9.35;5.97;;;;;;;-145.50;100.00;65435.88;5033877;28;20794;-72
2023/04/30 03:15:01;;;;;;;8.82;5.47;;;;;;;-145.50;100.00;65435.88;5041055;28;20049;-72
2023/04/30 03:17:28;;;;;;;10.23;6.32;;;;;;;-145.50;100.00;65435.88;5046370;28;20075;-72
2023/04/30 03:19:54;;;;;;;10.73;6.40;;;;;;;-145.50;100.00;65435.88;5044699;28;20056;-72
2023/04/30 03:22:22;;;;;;;9.93;5.85;;;;;;;-145.50;100.00;65435.88;5051102;28;20052;-73
2023/04/30 03:24:49;;;;;;;9.80;6.80;;;;;;;-145.50;100.00;65435.88;5044659;28;20053;-72
2023/04/30 03:27:15;;;;;;;11.57;6.70;;;;;;;-145.50;100.00;65435.88;5031414;28;20037;-73
2023/04/30 03:29:42;;;;;;;11.38;6.03;;;;;;;-145.50;100.00;65435.88;5049822;28;20520;-72
2023/04/30 03:32:09;;;;;;;10.93;6.47;;;;;;;-145.50;100.00;65435.88;5042099;28;20120;-73
2023/04/30 03:34:36;;;;;;;11.65;7.00;;;;;;;-145.50;100.00;65435.88;5067861;28;20049;-73
2023/04/30 03:37:03;;;;;;;9.63;6.68;;;;;;;-145.50;100.00;65435.88;5062828;28;20044;-74
2023/04/30 03:39:30;;;;;;;12.07;6.63;;;;;;;-145.50;100.00;65435.88;5063074;28;20087;-72
2023/04/30 03:41:56;;;;;;;10.70;6.72;;;;;;;-145.50;100.00;65435.88;5054180;28;20057;-73
2023/04/30 03:44:23;;;;;;;9.40;6.75;;;;;;;-145.50;100.00;65435.88;5048443;28;20053;-74
2023/04/30 03:46:50;;;;;;;10.10;6.18;;;;;;;-145.50;100.00;65435.88;5051235;28;20188;-72
2023/04/30 03:49:16;;;;;;;11.27;7.25;;;;;;;-145.50;100.00;65435.88;5044679;28;20440;-72
2023/04/30 03:51:43;;;;;;;10.20;6.50;;;;;;;-145.50;100.00;65435.88;5051258;28;20160;-72
2023/04/30 03:54:09;;;;;;;11.60;6.85;;;;;;;-145.50;100.00;65435.88;5051687;28;20048;-72
2023/04/30 03:56:36;;;;;;;12.40;7.28;;;;;;;-145.50;100.00;65435.88;5052538;28;20545;-74
2023/04/30 03:59:04;;;;;;;10.10;7.15;;;;;;;-145.50;100.00;65435.88;5043382;28;20052;-72
2023/04/30 04:01:31;;;;;;;9.30;6.53;;;;;;;-145.50;100.00;65435.88;5045456;28;20053;-72
2023/04/30 04:03:58;;;;;;;11.23;6.95;;;;;;;-145.50;100.00;65435.88;5050106;28;20175;-72
2023/04/30 04:06:25;;;;;;;14.57;7.18;;;;;;;-145.50;100.00;65435.88;5017916;28;20069;-72
2023/04/30 04:08:52;;;;;;;14.25;7.28;;;;;;;-145.50;100.00;65435.88;5043544;28;20053;-72
2023/04/30 04:11:19;;;;;;;11.60;7.82;;;;;;;-145.50;100.00;65435.88;5016279;28;20282;-72
2023/04/30 04:13:46;;;;;;;13.43;7.15;;;;;;;-145.50;100.00;65435.88;5044637;28;20049;-72
2023/04/30 04:16:12;;;;;;;13.32;7.43;;;;;;;-145.50;100.00;65435.88;5048601;28;20055;-72
2023/04/30 04:18:39;;;;;;;13.30;7.28;;;;;;;-145.50;100.00;65435.88;5043872;28;20052;-72
2023/04/30 04:21:06;;;;;;;11.20;6.88;;;;;;;-145.50;100.00;65435.88;5049914;28;20059;-73
2023/04/30 04:23:33;;;;;;;11.57;6.97;;;;;;;-145.50;100.00;65435.88;5042831;28;20049;-72
2023/04/30 04:25:59;;;;;;;12.13;7.25;;;;;;;-145.50;100.00;65435.88;5044513;28;20052;-73
2023/04/30 04:28:26;;;;;;;11.52;7.03;;;;;;;-145.50;100.00;65435.88;5038242;28;20052;-73
2023/04/30 04:30:52;;;;;;;10.93;7.68;;;;;;;-145.50;100.00;65435.88;5048932;28;20053;-72
2023/04/30 04:33:19;;;;;;;11.27;6.30;;;;;;;-145.50;100.00;65435.88;5030918;28;20057;-72
2023/04/30 04:35:46;;;;;;;9.98;6.88;;;;;;;-145.50;100.00;65435.88;5039528;28;20051;-72
2023/04/30 04:38:13;;;;;;;14.68;7.43;;;;;;;-145.50;100.00;65435.88;5030504;28;20055;-73
2023/04/30 04:40:40;;;;;;;14.70;7.82;;;;;;;-145.50;100.00;65435.88;5019233;28;20149;-73
2023/04/30 04:43:07;;;;;;;10.95;7.38;;;;;;;-145.50;100.00;65435.88;5046669;28;20130;-72
2023/04/30 04:45:34;;;;;;;9.98;7.55;;;;;;;-145.50;100.00;65435.88;5026111;28;20405;-72
2023/04/30 04:48:01;;;;;;;14.23;6.82;;;;;;;-145.50;100.00;65435.88;5048703;28;20489;-72
2023/04/30 04:50:27;;;;;;;11.63;7.80;;;;;;;-145.50;100.00;65435.88;5049110;28;20452;-73
2023/04/30 04:52:54;;;;;;;12.50;7.20;;;;;;;-145.50;100.00;65435.88;5039867;28;20521;-73
2023/04/30 04:55:21;;;;;;;12.43;6.85;;;;;;;-145.50;100.00;65435.88;5025486;28;20754;-72
2023/04/30 04:57:47;;;;;;;9.93;7.30;;;;;;;-145.50;100.00;65435.88;5044209;28;20048;-72
2023/04/30 05:00:14;;;;;;;14.55;8.38;;;;;;;-145.50;100.00;65435.88;5030575;28;20591;-72
2023/04/30 05:02:41;;;;;;;13.25;8.07;;;;;;;-145.50;100.00;65435.88;5025363;28;20114;-72
2023/04/30 05:05:07;;;;;;;10.48;7.30;;;;;;;-145.50;100.00;65435.88;5047985;28;20658;-71
2023/04/30 05:07:34;;;;;;;11.85;7.47;;;;;;;-145.50;100.00;65435.88;5039900;28;20080;-71
2023/04/30 05:10:01;;;;;;;13.43;7.93;;;;;;;-145.50;100.00;65435.88;5041476;28;20041;-71
2023/04/30 05:12:27;;;;;;;12.95;8.00;;;;;;;-145.50;100.00;65435.88;5034334;28;20548;-71
2023/04/30 05:14:54;;;;;;;15.23;8.40;;;;;;;-145.50;100.00;65435.88;5052462;28;20083;-71
2023/04/30 05:17:21;;;;;;;13.13;7.68;;;;;;;-145.50;100.00;65435.88;5043194;28;20080;-72
2023/04/30 05:19:49;;;;;;;16.27;8.40;;;;;;;-145.50;100.00;65435.88;5049493;28;20118;-71
2023/04/30 05:22:16;;;;;;;15.70;7.53;;;;;;;-145.50;100.00;65435.88;5046541;28;20440;-72
2023/04/30 05:24:42;;;;;;;15.38;7.68;;;;;;;-145.50;100.00;65435.88;5030604;28;20053;-71
2023/04/30 05:27:09;;;;;;;14.75;8.75;;;;;;;-145.50;100.00;65435.88;5046740;28;20479;-71
2023/04/30 05:29:37;;;;;;;11.45;7.80;;;;;;;-145.50;100.00;65435.88;5052548;28;20103;-71
2023/04/30 05:32:04;;;;;;;12.60;7.75;;;;;;;-145.50;100.00;65435.88;5046320;28;20053;-71
2023/04/30 05:34:31;;;;;;;9.23;6.03;;;;;;;-145.50;100.00;65435.88;5050589;28;20060;-71
2023/04/30 05:36:57;;;;;;;12.55;7.95;;;;;;;-145.50;100.00;65435.88;5041434;28;20072;-71
2023/04/30 05:39:24;;;;;;;14.32;8.32;;;;;;;-145.50;100.00;65435.88;5044164;28;20135;-71
2023/04/30 05:41:50;;;;;;;12.80;8.15;;;;;;;-145.50;100.00;65435.88;5033579;28;20052;-71
2023/04/30 05:44:18;;;;;;;11.40;8.02;;;;;;;-145.50;100.00;65435.88;5043300;28;20087;-71
2023/04/30 05:46:45;;;;;;;14.02;8.32;;;;;;;-145.50;100.00;65435.88;5051001;28;20059;-71
2023/04/30 05:49:11;;;;;;;14.02;8.55;;;;;;;-145.50;100.00;65435.88;5041652;28;20321;-71
2023/04/30 05:51:38;;;;;;;12.27;8.02;;;;;;;-145.50;100.00;65435.88;5053606;28;20122;-71
2023/04/30 05:54:04;;;;;;;12.45;8.05;;;;;;;-145.50;100.00;65435.88;5051008;28;20083;-71
2023/04/30 05:56:31;;;;;;;14.02;7.97;;;;;;;-145.50;100.00;65435.88;5026313;28;20413;-71
2023/04/30 05:58:57;;;;;;;13.10;8.88;;;;;;;-145.50;100.00;65435.88;5050008;28;20055;-71
2023/04/30 06:01:24;;;;;;;11.32;7.80;;;;;;;-145.50;100.00;65435.88;5020892;28;20124;-71
2023/04/30 06:03:51;;;;;;;10.55;6.32;;;;;;;-145.50;100.00;65435.88;5044251;28;20059;-71
2023/04/30 06:06:17;;;;;;;14.15;9.02;;;;;;;-145.50;100.00;65435.88;5023571;28;20136;-71
2023/04/30 06:08:44;;;;;;;10.90;8.05;;;;;;;-145.50;100.00;65435.88;5050472;28;20489;-71
2023/04/30 06:11:12;;;;;;;13.73;8.20;;;;;;;-145.50;100.00;65435.88;5031052;28;20057;-72
2023/04/30 06:13:39;;;;;;;12.07;7.43;;;;;;;-145.50;100.00;65435.88;5044542;28;20512;-71
2023/04/30 06:16:07;;;;;;;11.55;7.53;;;;;;;-145.50;100.00;65435.88;5024670;28;20103;-71
2023/04/30 06:18:34;;;;;;;13.67;8.17;;;;;;;-145.50;100.00;65435.88;5039193;28;20438;-71
2023/04/30 06:21:00;;;;;;;11.48;7.97;;;;;;;-145.50;100.00;65435.88;5049027;28;20103;-72
2023/04/30 06:23:27;;;;;;;13.35;8.43;;;;;;;-145.50;100.00;65435.88;5021702;28;20084;-72
2023/04/30 06:25:53;;;;;;;14.60;8.75;;;;;;;-145.50;100.00;65435.88;5050245;28;20041;-71
2023/04/30 06:28:20;;;;;;;13.52;8.20;;;;;;;-145.50;100.00;65435.88;5050041;28;20048;-71
2023/04/30 06:30:46;;;;;;;9.95;6.22;;;;;;;-145.50;100.00;65435.88;5043107;28;20052;-71
2023/04/30 06:33:13;;;;;;;12.05;8.30;;;;;;;-145.50;100.00;65435.88;5050355;28;20496;-71
2023/04/30 06:35:40;;;;;;;10.15;7.63;;;;;;;-145.50;100.00;65435.88;5038561;28;20052;-72
2023/04/30 06:38:06;;;;;;;11.95;7.95;;;;;;;-145.50;100.00;65435.88;5048256;28;20052;-71
2023/04/30 06:40:33;;;;;;;11.55;7.18;;;;;;;-145.50;100.00;65435.88;5043159;28;20512;-72
2023/04/30 06:43:00;;;;;;;11.50;7.47;;;;;;;-145.50;100.00;65435.88;5006704;28;1112961;-71
2023/04/30 06:45:27;;;;;;;11.40;7.50;;;;;;;-145.50;100.00;65435.88;5033045;28;20045;-73
2023/04/30 06:47:54;;;;;;;11.18;7.03;;;;;;;-145.50;100.00;65435.88;5050119;28;20107;-72
2023/04/30 06:50:21;;;;;;;12.90;7.53;;;;;;;-145.50;100.00;65435.88;5032425;28;20049;-72
2023/04/30 06:52:47;;;;;;;12.95;8.20;;;;;;;-145.50;100.00;65435.88;5042540;28;20045;-72
2023/04/30 06:55:14;;;;;;;10.82;7.57;;;;;;;-145.50;100.00;65435.88;5041370;28;20497;-71
2023/04/30 06:57:41;;;;;;;8.27;6.07;;;;;;;-145.50;100.00;65435.88;5025045;28;20070;-73
2023/04/30 07:00:08;;;;;;;13.10;7.18;;;;;;;-145.50;100.00;65435.88;5051093;28;20045;-74
2023/04/30 07:02:34;;;;;;;11.38;7.78;;;;;;;-145.50;100.00;65435.88;5051475;28;20420;-75
2023/04/30 07:05:02;;;;;;;10.02;6.55;;;;;;;-145.50;100.00;65435.88;5045619;28;20053;-74
2023/04/30 07:07:28;;;;;;;9.70;6.93;;;;;;;-145.50;100.00;65435.88;5052585;28;20117;-74
2023/04/30 07:09:55;;;;;;;9.93;6.90;;;;;;;-145.50;100.00;65435.88;5041594;28;20068;-75
2023/04/30 07:12:22;;;;;;;11.27;7.55;;;;;;;-145.50;100.00;65435.88;5028486;28;20107;-74
2023/04/30 07:14:49;;;;;;;7.22;4.80;;;;;;;-145.50;100.00;65435.88;5044516;28;20041;-74
2023/04/30 07:17:16;;;;;;;8.43;6.07;;;;;;;-145.50;100.00;65435.88;5050824;28;20056;-73
2023/04/30 07:19:42;;;;;;;11.35;7.38;;;;;;;-145.50;100.00;65435.88;5026703;28;20076;-74
2023/04/30 07:22:09;;;;;;;9.55;6.15;;;;;;;-145.50;100.00;65435.88;5037716;28;20187;-73
2023/04/30 07:24:35;;;;;;;14.60;6.95;;;;;;;-145.50;100.00;65435.88;5042407;28;20524;-73
2023/04/30 07:27:02;;;;;;;9.55;6.00;;;;;;;-145.50;100.00;65435.88;5042883;28;20052;-73
2023/04/30 07:29:29;;;;;;;13.57;7.47;;;;;;;-145.50;100.00;65435.88;5032167;28;20080;-73
2023/04/30 07:31:56;;;;;;;12.02;6.93;;;;;;;-145.50;100.00;65435.88;5050180;28;20485;-73
2023/04/30 07:34:24;;;;;;;10.80;7.13;;;;;;;-145.50;100.00;65435.88;5044394;28;20417;-73
2023/04/30 07:36:51;;;;;;;6.37;4.87;;;;;;;-145.50;100.00;65435.88;5046396;28;20084;-73
2023/04/30 07:39:17;;;;;;;8.98;6.15;;;;;;;-145.50;100.00;65435.88;5043976;28;20051;-73
2023/04/30 07:41:44;;;;;;;11.32;6.35;;;;;;;-145.50;100.00;65435.88;5053897;28;20045;-74
2023/04/30 07:44:11;;;;;;;11.90;6.97;;;;;;;-145.50;100.00;65435.88;5044606;28;20075;-74
2023/04/30 07:46:37;;;;;;;12.80;6.38;;;;;;;-145.50;100.00;65435.88;5043445;28;20049;-73
2023/04/30 07:49:04;;;;;;;8.38;5.20;;;;;;;-145.50;100.00;65435.88;5051120;28;20048;-73
2023/04/30 07:51:31;;;;;;;6.80;4.30;;;;;;;-145.50;100.00;65435.88;5038887;28;20474;-74
2023/04/30 07:53:59;;;;;;;11.60;5.80;;;;;;;-145.50;100.00;65435.88;5028815;28;20060;-74
2023/04/30 07:56:25;;;;;;;8.10;5.55;;;;;;;-145.50;100.00;65435.88;5027638;28;20084;-74
2023/04/30 07:58:52;;;;;;;10.98;5.75;;;;;;;-145.50;100.00;65435.88;5049978;28;20055;-73
2023/04/30 08:01:18;;;;;;;10.18;5.25;;;;;;;-145.50;100.00;65435.88;5026292;28;20060;-74
2023/04/30 08:03:45;;;;;;;8.95;6.55;;;;;;;-145.50;100.00;65435.88;5035318;28;20049;-74
2023/04/30 08:06:12;;;;;;;12.23;6.57;;;;;;;-145.50;100.00;65435.88;5032250;28;20183;-73
2023/04/30 08:08:38;;;;;;;10.68;6.72;;;;;;;-145.50;100.00;65435.88;5054984;28;20045;-74
2023/04/30 08:11:05;;;;;;;9.65;6.70;;;;;;;-145.50;100.00;65435.88;5057206;28;20402;-73
2023/04/30 08:13:31;;;;;;;12.38;7.20;;;;;;;-145.50;100.00;65435.88;5044710;28;20130;-74
2023/04/30 08:15:58;;;;;;;13.00;6.65;;;;;;;-145.50;100.00;65435.88;5050195;28;20422;-74
2023/04/30 08:18:25;;;;;;;9.82;6.78;;;;;;;-145.50;100.00;65435.88;5039985;28;20556;-74
2023/04/30 08:20:51;;;;;;;10.25;5.80;;;;;;;-145.50;100.00;65435.88;5045534;28;20053;-74
2023/04/30 08:23:18;;;;;;;11.13;6.05;;;;;;;-145.50;100.00;65435.88;5049779;28;20044;-74
2023/04/30 08:25:44;;;;;;;10.05;6.25;;;;;;;-145.50;100.00;65435.88;5042213;28;20053;-75
2023/04/30 08:28:11;;;;;;;13.32;6.57;;;;;;;-145.50;100.00;65435.88;5033538;28;20048;-74
2023/04/30 08:30:38;;;;;;;10.80;6.20;;;;;;;-145.50;100.00;65435.88;5044585;28;20103;-74
2023/04/30 08:33:05;;;;;;;8.68;5.40;;;;;;;-145.50;100.00;65435.88;5045794;28;20044;-74
2023/04/30 08:35:31;;;;;;;11.25;6.00;;;;;;;-145.50;100.00;65435.88;5022387;28;20060;-74
2023/04/30 08:37:58;;;;;;;10.68;5.40;;;;;;;-145.50;100.00;65435.88;5048208;28;20084;-75
2023/04/30 08:40:26;;;;;;;8.57;6.05;;;;;;;-145.50;100.00;65435.88;5049022;28;20041;-75
2023/04/30 08:43:14;;;;;;;11.75;6.28;;;;;;;-145.50;100.00;65435.88;5042225;28;20048;-73
2023/04/30 08:45:41;;;;;;;10.05;6.05;;;;;;;-145.50;100.00;65435.88;5046132;28;20055;-74
2023/04/30 08:48:13;;;;;;;9.60;5.80;;;;;;;-145.50;100.00;65435.88;5021416;28;20049;-74
2023/04/30 08:50:40;;;;;;;12.27;6.05;;;;;;;-145.50;100.00;65435.88;5047114;28;20045;-74
2023/04/30 08:53:09;;;;;;;9.35;6.05;;;;;;;-145.50;100.00;65435.88;5026794;28;20103;-74
2023/04/30 08:55:38;;;;;;;9.85;5.68;;;;;;;-145.50;100.00;65435.88;5050046;28;20049;-74
2023/04/30 08:58:07;;;;;;;8.52;5.28;;;;;;;-145.50;100.00;65435.88;5049772;28;20060;-74
2023/04/30 09:00:36;;;;;;;8.88;5.68;;;;;;;-145.50;100.00;65435.88;5045340;28;20048;-74
2023/04/30 09:03:03;;;;;;;10.15;5.95;;;;;;;-145.50;100.00;65435.88;5047027;28;20482;-74
2023/04/30 09:05:30;;;;;;;9.95;5.43;;;;;;;-145.50;100.00;65435.88;5042070;28;20045;-74
2023/04/30 09:07:57;;;;;;;9.68;5.63;;;;;;;-145.50;100.00;65435.88;5049310;28;20056;-75
2023/04/30 09:10:26;;;;;;;11.27;6.15;;;;;;;-145.50;100.00;65435.88;5025646;28;20049;-75
2023/04/30 09:13:07;;;;;;;9.70;6.10;;;;;;;-145.50;100.00;65435.88;5045578;28;20139;-75
2023/04/30 09:15:37;;;;;;;10.50;5.90;;;;;;;-145.50;100.00;65435.88;5040925;28;20053;-74
2023/04/30 09:18:15;;;;;;;9.10;5.53;;;;;;;-145.50;100.00;65435.88;5048051;28;20545;-75
2023/04/30 09:20:59;;;;;;;7.35;4.85;;;;;;;-145.50;100.00;65435.88;5031237;28;20053;-74
2023/04/30 09:23:26;;;;;;;8.30;4.70;;;;;;;-145.50;100.00;65435.88;5025886;28;20470;-75
2023/04/30 09:25:53;;;;;;;7.35;4.93;;;;;;;-145.50;100.00;65435.88;5030714;28;20079;-75
2023/04/30 09:28:24;;;;;;;6.60;4.10;;;;;;;-145.50;100.00;65435.88;5036783;28;20047;-74
2023/04/30 09:30:51;;;;;;;9.18;5.07;;;;;;;-145.50;100.00;65435.88;5029185;28;20056;-75
2023/04/30 09:33:17;;;;;;;8.95;5.03;;;;;;;-145.50;100.00;65435.88;5043060;28;20045;-75
2023/04/30 09:35:44;;;;;;;8.40;4.38;;;;;;;-145.50;100.00;65435.88;5049125;28;20053;-75
2023/04/30 09:38:30;;;;;;;8.82;5.43;;;;;;;-145.50;100.00;65435.88;5048919;28;20555;-75
2023/04/30 09:41:00;;;;;;;9.48;5.38;;;;;;;-145.50;100.00;65435.88;5051607;28;20084;-75
2023/04/30 09:43:28;;;;;;;8.93;4.90;;;;;;;-145.50;100.00;65435.88;5027126;28;20057;-75
2023/04/30 09:45:57;;;;;;;8.38;5.38;;;;;;;-145.50;100.00;65435.88;5042765;28;20049;-75
2023/04/30 09:48:26;;;;;;;6.32;4.35;;;;;;;-145.50;100.00;65435.88;5044195;28;20069;-75
2023/04/30 09:50:53;;;;;;;9.82;4.82;;;;;;;-145.50;100.00;65435.88;5042910;28;20053;-75
2023/04/30 09:53:20;;;;;;;6.65;4.25;;;;;;;-145.50;100.00;65435.88;5050176;28;20068;-75
2023/04/30 09:55:48;;;;;;;7.40;4.40;;;;;;;-145.50;100.00;65435.88;5024171;28;20103;-75
2023/04/30 09:58:16;;;;;;;7.60;4.20;;;;;;;-145.50;100.00;65435.88;5033569;28;20115;-75
2023/04/30 10:00:44;;;;;;;8.77;4.68;;;;;;;-145.50;100.00;65435.88;5052341;28;20674;-75
2023/04/30 10:03:13;;;;;;;7.57;4.78;;;;;;;-145.50;100.00;65435.88;5045642;28;20060;-74
2023/04/30 10:05:41;;;;;;;;;;;;;;;-145.50;100.00;65435.88;5053356;28;20045;-75
2023/04/30 10:08:23;;;;;;;8.73;4.10;;;;;;;-145.50;100.00;65435.88;5024056;28;19964;-75
2023/04/30 10:11:01;;;;;;;6.07;4.32;;;;;;;-145.50;100.00;65435.88;5046580;28;20053;-75
2023/04/30 10:13:30;;;;;;;6.13;4.20;;;;;;;-145.50;100.00;65435.88;5037583;28;20065;-74
2023/04/30 10:16:03;;;;;;;5.88;4.28;;;;;;;-145.50;100.00;65435.88;5051899;28;20052;-74
2023/04/30 10:18:38;;;;;;;7.93;4.75;;;;;;;-145.50;100.00;65435.88;5052100;28;20264;-74
2023/04/30 10:21:10;;;;;;;5.70;3.83;;;;;;;-145.50;100.00;65435.88;5045622;28;20094;-74
2023/04/30 10:23:42;;;;;;;8.32;5.45;;;;;;;-145.50;100.00;65435.88;5037185;28;20485;-74
2023/04/30 10:26:11;;;;;;;6.35;4.05;;;;;;;-145.50;100.00;65435.88;5046154;28;20508;-73
2023/04/30 10:28:39;;;;;;;5.85;4.72;;;;;;;-145.50;100.00;65435.88;5044598;28;20053;-73
2023/04/30 10:31:09;;;;;;;8.00;4.82;;;;;;;-145.50;100.00;65435.88;5045420;28;20053;-74
2023/04/30 10:33:54;;;;;;;6.30;3.50;;;;;;;-145.50;100.00;65435.88;5052269;28;20059;-74
2023/04/30 10:36:31;;;;;;;8.15;3.55;;;;;;;-145.50;100.00;65435.88;5040313;28;20087;-74
2023/04/30 10:38:58;;;;;;;7.00;3.60;;;;;;;-145.50;100.00;65435.88;5033840;28;20059;-74
2023/04/30 10:41:26;;;;;;;8.57;4.00;;;;;;;-145.50;100.00;65435.88;5039891;28;20144;-73
2023/04/30 10:43:58;;;;;;;8.93;4.28;;;;;;;-145.50;100.00;65435.88;5047185;28;20084;-73
2023/04/30 10:46:27;;;;;;;5.70;3.45;;;;;;;-145.50;100.00;65435.88;5051596;28;20111;-74
2023/04/30 10:48:54;;;;;;;6.38;4.20;;;;;;;-145.50;100.00;65435.88;5027041;28;20037;-73
2023/04/30 10:51:22;;;;;;;5.53;3.55;;;;;;;-145.50;100.00;65435.88;5049247;28;20144;-74
2023/04/30 10:53:50;;;;;;;;;;;;;;;-145.50;100.00;65435.88;5031174;28;20132;-74
2023/04/30 10:56:33;;;;;;;4.22;3.20;;;;;;;-145.50;100.00;65435.88;5051604;28;20327;-74
2023/04/30 10:59:01;;;;;;;7.07;3.90;;;;;;;-145.50;100.00;65435.88;5051893;28;20045;-74
2023/04/30 11:01:28;;;;;;;6.00;3.45;;;;;;;-145.50;100.00;65435.88;5045425;28;20049;-74
2023/04/30 11:04:09;;;;;;;6.57;3.60;;;;;;;-145.50;100.00;65435.88;5045222;28;20051;-74
2023/04/30 11:06:55;;;;;;;5.75;3.80;;;;;;;-145.50;100.00;65435.88;5026721;28;20064;-75
2023/04/30 11:09:39;;;;;;;8.10;3.65;;;;;;;-145.50;100.00;65435.88;5058253;28;20049;-74
2023/04/30 11:12:13;;;;;;;6.13;3.88;;;;;;;-145.50;100.00;65435.88;5045726;28;20056;-75